Time;durP1;ratioP1;P1;durP2;ratioP2;P2;SDS_P1;SDS_P2;PMS_P1;PMS_P2;Temp;Humidity;BMP_temperature;BMP_pressure;BME280_temperature;BME280_humidity;BME280_pressure;Samples;Min_cycle;Max_cycle;Signal;HPM_P1;HPM_P2
2024/03/31 00:01:05;;;;;;;24.40;12.83;;;;;;;;;;5094289;28;20681;-80
2024/03/31 00:03:32;;;;;;;9.70;5.10;;;;;;;;;;5093877;28;20256;-82
2024/03/31 00:05:58;;;;;;;11.40;6.50;;;;;;;;;;5094287;27;20667;-80
2024/03/31 00:08:25;;;;;;;7.13;4.57;;;;;;;;;;5094171;28;20248;-80
2024/03/31 00:10:57;;;;;;;32.60;17.67;;;;;;;;;;5094215;28;20230;-82
2024/03/31 00:13:24;;;;;;;9.27;4.97;;;;;;;;;;5094388;28;20225;-81
2024/03/31 00:15:52;;;;;;;10.37;6.07;;;;;;;;;;5093765;28;20700;-81
2024/03/31 00:18:19;;;;;;;9.57;5.57;;;;;;;;;;5093715;28;20227;-82
2024/03/31 00:20:46;;;;;;;6.30;3.80;;;;;;;;;;5093681;28;20202;-82
2024/03/31 00:23:13;;;;;;;22.67;11.73;;;;;;;;;;5093749;28;20210;-80
2024/03/31 00:25:39;;;;;;;12.70;9.10;;;;;;;;;;5093560;28;20310;-81
2024/03/31 00:28:06;;;;;;;9.63;6.60;;;;;;;;;;5093633;28;20293;-81
2024/03/31 00:30:33;;;;;;;5.90;3.83;;;;;;;;;;5094301;28;20260;-81
2024/03/31 00:33:01;;;;;;;3.67;2.57;;;;;;;;;;5093550;28;20205;-81
2024/03/31 00:35:27;;;;;;;4.57;3.13;;;;;;;;;;5093167;28;20225;-81
2024/03/31 00:37:55;;;;;;;6.03;2.67;;;;;;;;;;5093024;28;20297;-81
2024/03/31 00:40:21;;;;;;;6.20;3.33;;;;;;;;;;5094056;28;20251;-81
2024/03/31 00:42:48;;;;;;;12.87;6.60;;;;;;;;;;5093204;28;20202;-80
2024/03/31 00:45:14;;;;;;;9.07;5.23;;;;;;;;;;5093412;28;20573;-81
2024/03/31 00:47:41;;;;;;;4.93;2.90;;;;;;;;;;5093079;28;20252;-81
2024/03/31 00:50:09;;;;;;;7.83;4.37;;;;;;;;;;5092715;28;20199;-81
2024/03/31 00:52:37;;;;;;;4.87;3.20;;;;;;;;;;5093350;28;20587;-81
2024/03/31 00:55:03;;;;;;;5.13;2.20;;;;;;;;;;5093268;28;20203;-80
2024/03/31 00:57:30;;;;;;;4.40;2.73;;;;;;;;;;5093455;28;20198;-81
2024/03/31 00:59:56;;;;;;;4.40;2.20;;;;;;;;;;5092911;28;20287;-81
2024/03/31 01:02:25;;;;;;;2.30;2.10;;;;;;;;;;5092525;28;20237;-81
2024/03/31 01:04:51;;;;;;;3.23;2.27;;;;;;;;;;5092720;28;20202;-81
2024/03/31 01:07:20;;;;;;;2.83;2.00;;;;;;;;;;5092772;28;20234;-80
2024/03/31 01:09:47;;;;;;;5.27;2.10;;;;;;;;;;5093156;28;20267;-81
2024/03/31 01:12:14;;;;;;;3.77;2.10;;;;;;;;;;5091978;28;20205;-81
2024/03/31 01:14:41;;;;;;;3.40;2.03;;;;;;;;;;5092706;28;20202;-81
2024/03/31 01:17:08;;;;;;;5.93;2.37;;;;;;;;;;5092660;28;20263;-80
2024/03/31 01:19:34;;;;;;;2.47;1.93;;;;;;;;;;5092371;28;20265;-81
2024/03/31 01:22:02;;;;;;;2.10;1.90;;;;;;;;;;5092495;28;20285;-81
2024/03/31 01:24:29;;;;;;;2.80;1.90;;;;;;;;;;5092765;28;20307;-80
2024/03/31 01:26:57;;;;;;;2.27;1.90;;;;;;;;;;5092525;28;20202;-81
2024/03/31 01:29:23;;;;;;;2.03;1.77;;;;;;;;;;5092435;28;20240;-81
2024/03/31 01:31:50;;;;;;;3.07;2.00;;;;;;;;;;5092599;28;20194;-82
2024/03/31 01:34:17;;;;;;;2.77;1.73;;;;;;;;;;5091005;28;20193;-81
2024/03/31 01:36:44;;;;;;;3.07;1.70;;;;;;;;;;5092400;28;20253;-81
2024/03/31 01:39:11;;;;;;;1.93;1.57;;;;;;;;;;5092766;28;20280;-80
2024/03/31 01:41:40;;;;;;;3.30;1.77;;;;;;;;;;5092201;28;20293;-81
2024/03/31 01:44:07;;;;;;;4.03;1.83;;;;;;;;;;5092272;28;20667;-81
2024/03/31 01:46:34;;;;;;;2.83;1.80;;;;;;;;;;5092118;28;20631;-82
2024/03/31 01:49:00;;;;;;;3.27;2.30;;;;;;;;;;5092298;28;20650;-81
2024/03/31 01:51:27;;;;;;;3.97;2.03;;;;;;;;;;5092565;28;20206;-81
2024/03/31 01:53:54;;;;;;;2.97;1.90;;;;;;;;;;5092161;28;20218;-81
2024/03/31 01:56:21;;;;;;;3.97;1.90;;;;;;;;;;5090335;28;20282;-80
2024/03/31 01:58:48;;;;;;;2.70;2.00;;;;;;;;;;5091958;28;20271;-82
2024/03/31 02:01:16;;;;;;;2.20;2.00;;;;;;;;;;5091063;28;20220;-81
2024/03/31 02:03:42;;;;;;;4.43;2.47;;;;;;;;;;5092281;28;20649;-82
2024/03/31 02:06:09;;;;;;;3.33;2.00;;;;;;;;;;5091498;28;20304;-81
2024/03/31 02:08:35;;;;;;;2.03;1.70;;;;;;;;;;5091743;28;20724;-80
2024/03/31 02:11:03;;;;;;;2.77;1.80;;;;;;;;;;5091784;28;20365;-82
2024/03/31 02:13:29;;;;;;;3.50;2.13;;;;;;;;;;5091906;28;20202;-81
2024/03/31 02:15:57;;;;;;;3.00;1.80;;;;;;;;;;5090440;28;20621;-80
2024/03/31 02:18:24;;;;;;;2.87;1.93;;;;;;;;;;5091610;28;20228;-81
2024/03/31 02:20:51;;;;;;;2.17;1.93;;;;;;;;;;5091713;28;20214;-82
2024/03/31 02:23:17;;;;;;;5.43;2.07;;;;;;;;;;5091779;28;20284;-81
2024/03/31 02:25:44;;;;;;;3.63;2.20;;;;;;;;;;5091470;28;20730;-80
2024/03/31 02:28:11;;;;;;;2.10;1.90;;;;;;;;;;5091371;28;20285;-82
2024/03/31 02:30:38;;;;;;;2.80;2.10;;;;;;;;;;5090790;28;20293;-81
2024/03/31 02:33:05;;;;;;;2.23;1.60;;;;;;;;;;5091707;28;20220;-81
2024/03/31 02:35:33;;;;;;;3.80;2.00;;;;;;;;;;5091606;28;20232;-82
2024/03/31 02:37:59;;;;;;;2.23;1.93;;;;;;;;;;5091203;28;20194;-80
2024/03/31 02:40:26;;;;;;;2.17;1.90;;;;;;;;;;5091427;28;20237;-80
2024/03/31 02:42:52;;;;;;;3.90;2.20;;;;;;;;;;5091939;28;20226;-81
2024/03/31 02:45:19;;;;;;;2.30;1.87;;;;;;;;;;5091266;28;20293;-80
2024/03/31 02:47:46;;;;;;;4.10;2.00;;;;;;;;;;5091210;28;20209;-81
2024/03/31 02:50:14;;;;;;;3.40;2.10;;;;;;;;;;5091390;28;20202;-80
2024/03/31 02:52:41;;;;;;;2.73;2.00;;;;;;;;;;5091022;28;20694;-80
2024/03/31 02:55:08;;;;;;;2.70;2.00;;;;;;;;;;5091154;28;20698;-81
2024/03/31 02:57:34;;;;;;;2.97;2.07;;;;;;;;;;5091486;28;20198;-81
2024/03/31 03:00:01;;;;;;;2.40;2.00;;;;;;;;;;5090918;28;20234;-81
2024/03/31 03:02:27;;;;;;;2.60;2.00;;;;;;;;;;5090841;28;20198;-81
2024/03/31 03:04:55;;;;;;;2.93;2.07;;;;;;;;;;5087956;28;20244;-80
2024/03/31 03:07:22;;;;;;;2.37;2.10;;;;;;;;;;5079978;28;20242;-81
2024/03/31 03:09:49;;;;;;;3.33;2.30;;;;;;;;;;5071072;28;20223;-80
2024/03/31 03:12:16;;;;;;;4.57;2.50;;;;;;;;;;5071018;28;20215;-81
2024/03/31 03:14:43;;;;;;;3.23;2.00;;;;;;;;;;5089102;28;20298;-81
2024/03/31 03:17:09;;;;;;;2.37;2.10;;;;;;;;;;5090959;28;20226;-81
2024/03/31 03:19:36;;;;;;;3.40;2.30;;;;;;;;;;5091357;28;20257;-81
2024/03/31 03:22:03;;;;;;;2.70;2.30;;;;;;;;;;5091338;28;20199;-82
2024/03/31 03:24:31;;;;;;;2.60;1.90;;;;;;;;;;5090905;28;20229;-81
2024/03/31 03:26:57;;;;;;;4.50;2.30;;;;;;;;;;5092438;28;20198;-80
2024/03/31 03:29:25;;;;;;;4.17;2.40;;;;;;;;;;5094817;28;20229;-81
2024/03/31 03:31:51;;;;;;;5.90;2.40;;;;;;;;;;5094688;28;20198;-81
2024/03/31 03:34:18;;;;;;;4.20;2.37;;;;;;;;;;5094648;28;20740;-81
2024/03/31 03:36:44;;;;;;;2.63;2.43;;;;;;;;;;5095173;28;20249;-81
2024/03/31 03:39:11;;;;;;;3.10;2.53;;;;;;;;;;5094472;28;20271;-82
2024/03/31 03:41:40;;;;;;;2.40;2.20;;;;;;;;;;5094715;28;20190;-81
2024/03/31 03:44:06;;;;;;;4.10;2.27;;;;;;;;;;5094335;28;20276;-81
2024/03/31 03:46:34;;;;;;;3.87;2.70;;;;;;;;;;5094748;28;20207;-81
2024/03/31 03:49:00;;;;;;;3.60;2.67;;;;;;;;;;5094776;28;20195;-82
2024/03/31 03:51:27;;;;;;;4.20;2.70;;;;;;;;;;5094279;28;20625;-81
2024/03/31 03:53:53;;;;;;;3.63;2.63;;;;;;;;;;5094364;28;20255;-81
2024/03/31 03:56:20;;;;;;;3.60;2.60;;;;;;;;;;5094156;28;20277;-81
2024/03/31 03:58:48;;;;;;;5.00;2.60;;;;;;;;;;5093823;28;20229;-82
2024/03/31 04:01:15;;;;;;;3.70;2.70;;;;;;;;;;5094249;28;20573;-82
2024/03/31 04:03:41;;;;;;;4.93;2.53;;;;;;;;;;5094844;28;20195;-81
2024/03/31 04:06:09;;;;;;;5.47;2.80;;;;;;;;;;5093986;28;20578;-81
2024/03/31 04:08:35;;;;;;;4.07;2.73;;;;;;;;;;5093864;28;20194;-81
2024/03/31 04:11:02;;;;;;;4.70;2.53;;;;;;;;;;5094130;28;20237;-81
2024/03/31 04:13:28;;;;;;;4.13;2.90;;;;;;;;;;5093284;28;20255;-81
2024/03/31 04:16:00;;;;;;;4.17;2.77;;;;;;;;;;5093905;28;20209;-80
2024/03/31 04:18:26;;;;;;;6.60;2.90;;;;;;;;;;5094089;28;20248;-81
2024/03/31 04:20:53;;;;;;;5.93;3.00;;;;;;;;;;5094138;28;20226;-81
2024/03/31 04:23:20;;;;;;;5.80;2.87;;;;;;;;;;5093600;28;20199;-82
2024/03/31 04:25:47;;;;;;;3.93;2.63;;;;;;;;;;5093588;28;20262;-81
2024/03/31 04:28:13;;;;;;;5.50;2.80;;;;;;;;;;5093703;28;20267;-81
2024/03/31 04:30:41;;;;;;;4.73;3.00;;;;;;;;;;5094109;28;20206;-82
2024/03/31 04:33:09;;;;;;;4.90;2.80;;;;;;;;;;5093519;28;20195;-82
2024/03/31 04:35:37;;;;;;;5.50;3.03;;;;;;;;;;5093600;28;20201;-81
2024/03/31 04:38:03;;;;;;;5.27;2.53;;;;;;;;;;5093022;28;20547;-81
2024/03/31 04:40:31;;;;;;;4.83;2.70;;;;;;;;;;5092723;28;20265;-81
2024/03/31 04:42:57;;;;;;;4.90;2.73;;;;;;;;;;5093493;28;20677;-81
2024/03/31 04:45:24;;;;;;;4.03;2.90;;;;;;;;;;5093380;28;20202;-81
2024/03/31 04:47:51;;;;;;;5.70;2.80;;;;;;;;;;5093774;28;20247;-81
2024/03/31 04:50:20;;;;;;;7.13;2.97;;;;;;;;;;5093412;28;20199;-82
2024/03/31 04:52:46;;;;;;;6.67;2.97;;;;;;;;;;5093588;28;20631;-81
2024/03/31 04:55:13;;;;;;;6.83;3.07;;;;;;;;;;5092526;28;20198;-82
2024/03/31 04:57:40;;;;;;;3.97;2.60;;;;;;;;;;5093911;28;20252;-82
2024/03/31 05:00:09;;;;;;;4.30;2.63;;;;;;;;;;5093271;28;20233;-81
2024/03/31 05:02:35;;;;;;;4.70;2.83;;;;;;;;;;5093074;28;20202;-81
2024/03/31 05:05:03;;;;;;;5.23;2.63;;;;;;;;;;5093362;28;20655;-82
2024/03/31 05:07:30;;;;;;;5.23;2.97;;;;;;;;;;5092923;28;20194;-82
2024/03/31 05:09:57;;;;;;;5.37;2.97;;;;;;;;;;5092419;28;20301;-81
2024/03/31 05:12:23;;;;;;;5.50;2.63;;;;;;;;;;5092900;28;20259;-81
2024/03/31 05:14:52;;;;;;;4.17;2.53;;;;;;;;;;5092513;28;20230;-82
2024/03/31 05:17:19;;;;;;;3.30;2.80;;;;;;;;;;5093030;28;20669;-81
2024/03/31 05:19:46;;;;;;;5.37;2.70;;;;;;;;;;5092687;28;20222;-81
2024/03/31 05:22:12;;;;;;;3.90;2.40;;;;;;;;;;5092864;28;20247;-81
2024/03/31 05:24:43;;;;;;;4.07;2.30;;;;;;;;;;5091872;28;20627;-81
2024/03/31 05:27:11;;;;;;;3.50;2.43;;;;;;;;;;5092442;28;20670;-81
2024/03/31 05:29:38;;;;;;;3.57;2.47;;;;;;;;;;5092668;28;20568;-82
2024/03/31 05:32:05;;;;;;;5.70;2.67;;;;;;;;;;5092510;28;20572;-81
2024/03/31 05:34:32;;;;;;;3.93;2.73;;;;;;;;;;5092102;28;20665;-81
2024/03/31 05:36:58;;;;;;;4.87;2.73;;;;;;;;;;5092647;28;20194;-81
2024/03/31 05:39:25;;;;;;;5.00;2.80;;;;;;;;;;5091570;28;20231;-82
2024/03/31 05:41:53;;;;;;;4.20;2.77;;;;;;;;;;5092681;28;20282;-82
2024/03/31 05:44:20;;;;;;;3.93;2.57;;;;;;;;;;5092464;28;20762;-82
2024/03/31 05:46:46;;;;;;;4.77;2.60;;;;;;;;;;5091750;28;20670;-81
2024/03/31 05:49:14;;;;;;;3.87;2.90;;;;;;;;;;5092168;28;20198;-81
2024/03/31 05:51:40;;;;;;;4.33;2.97;;;;;;;;;;5092062;28;20939;-82
2024/03/31 05:54:07;;;;;;;3.53;2.73;;;;;;;;;;5092222;28;20206;-81
2024/03/31 05:56:33;;;;;;;3.70;2.57;;;;;;;;;;5092256;28;20244;-81
2024/03/31 05:59:03;;;;;;;3.93;3.00;;;;;;;;;;5092055;28;20198;-81
2024/03/31 06:01:29;;;;;;;3.90;2.50;;;;;;;;;;5091953;28;20194;-82
2024/03/31 06:03:56;;;;;;;3.90;2.97;;;;;;;;;;5090703;28;20550;-81
2024/03/31 06:06:22;;;;;;;7.97;3.00;;;;;;;;;;5092146;28;20195;-81
2024/03/31 06:08:50;;;;;;;6.70;3.07;;;;;;;;;;5091726;28;20202;-81
2024/03/31 06:11:16;;;;;;;4.03;3.20;;;;;;;;;;5091821;28;20225;-82
2024/03/31 06:13:44;;;;;;;3.83;2.77;;;;;;;;;;5091960;28;20202;-81
2024/03/31 06:16:13;;;;;;;4.20;2.70;;;;;;;;;;5091918;28;20194;-81
2024/03/31 06:18:40;;;;;;;4.77;2.97;;;;;;;;;;5092061;28;20646;-81
2024/03/31 06:21:06;;;;;;;3.43;3.00;;;;;;;;;;5091499;28;20253;-81
2024/03/31 06:23:35;;;;;;;3.70;2.70;;;;;;;;;;5091297;28;20248;-82
2024/03/31 06:26:02;;;;;;;5.33;2.93;;;;;;;;;;5091161;28;20226;-82
2024/03/31 06:28:29;;;;;;;4.33;3.00;;;;;;;;;;5091619;28;20198;-82
2024/03/31 06:30:56;;;;;;;3.77;2.93;;;;;;;;;;5091864;28;20198;-81
2024/03/31 06:33:25;;;;;;;5.27;3.03;;;;;;;;;;5091380;28;20795;-82
2024/03/31 06:35:51;;;;;;;3.20;2.73;;;;;;;;;;5091158;28;20194;-83
2024/03/31 06:38:18;;;;;;;3.93;2.67;;;;;;;;;;5091378;28;20198;-81
2024/03/31 06:40:44;;;;;;;3.37;2.40;;;;;;;;;;5091290;28;20237;-82
2024/03/31 06:43:12;;;;;;;5.13;2.73;;;;;;;;;;5090806;28;20249;-82
2024/03/31 06:45:39;;;;;;;3.83;2.60;;;;;;;;;;5091919;28;20224;-81
2024/03/31 06:48:05;;;;;;;3.50;2.40;;;;;;;;;;5091616;28;20237;-81
2024/03/31 06:50:34;;;;;;;4.17;2.60;;;;;;;;;;5091075;28;20206;-81
2024/03/31 06:53:00;;;;;;;3.80;2.70;;;;;;;;;;5091036;28;20221;-82
2024/03/31 06:55:27;;;;;;;4.13;2.60;;;;;;;;;;5091722;28;20289;-82
2024/03/31 06:57:53;;;;;;;3.27;2.50;;;;;;;;;;5090887;28;20795;-82
2024/03/31 07:00:21;;;;;;;5.07;2.67;;;;;;;;;;5091464;28;20316;-82
2024/03/31 07:02:50;;;;;;;4.17;2.80;;;;;;;;;;5094016;28;20201;-81
2024/03/31 07:05:17;;;;;;;3.33;2.53;;;;;;;;;;5095453;28;20267;-81
2024/03/31 07:07:45;;;;;;;3.97;2.60;;;;;;;;;;5095145;28;20199;-81
2024/03/31 07:10:12;;;;;;;5.30;2.50;;;;;;;;;;5095483;28;20198;-82
2024/03/31 07:12:38;;;;;;;5.27;2.43;;;;;;;;;;5094952;28;20194;-83
2024/03/31 07:15:06;;;;;;;3.83;2.27;;;;;;;;;;5095286;28;20209;-83
2024/03/31 07:17:34;;;;;;;3.23;2.03;;;;;;;;;;5095509;28;20274;-82
2024/03/31 07:20:01;;;;;;;3.17;2.30;;;;;;;;;;5094336;28;20694;-82
2024/03/31 07:22:27;;;;;;;4.20;2.20;;;;;;;;;;5095061;28;20244;-82
2024/03/31 07:24:56;;;;;;;3.17;2.20;;;;;;;;;;5095457;28;20226;-82
2024/03/31 07:27:22;;;;;;;4.03;2.43;;;;;;;;;;5094626;28;20615;-82
2024/03/31 07:29:49;;;;;;;3.83;2.07;;;;;;;;;;5095064;28;20213;-82
2024/03/31 07:32:16;;;;;;;3.00;2.20;;;;;;;;;;5095143;28;20654;-81
2024/03/31 07:34:43;;;;;;;2.43;2.07;;;;;;;;;;5094144;28;20285;-81
2024/03/31 07:37:09;;;;;;;4.03;1.80;;;;;;;;;;5094817;28;20240;-80
2024/03/31 07:39:36;;;;;;;2.97;1.90;;;;;;;;;;5094768;28;20222;-82
2024/03/31 07:42:04;;;;;;;2.93;1.90;;;;;;;;;;5094864;28;20239;-82
2024/03/31 07:44:32;;;;;;;3.63;1.90;;;;;;;;;;5094475;28;20666;-82
2024/03/31 07:46:59;;;;;;;3.07;2.00;;;;;;;;;;5094805;28;20658;-82
2024/03/31 07:49:27;;;;;;;2.23;1.90;;;;;;;;;;5093828;28;20210;-81
2024/03/31 07:51:54;;;;;;;2.47;1.90;;;;;;;;;;5095108;28;20190;-81
2024/03/31 07:54:21;;;;;;;2.10;1.70;;;;;;;;;;5094082;28;20571;-83
2024/03/31 07:56:47;;;;;;;2.93;1.90;;;;;;;;;;5094260;28;20693;-82
2024/03/31 07:59:16;;;;;;;5.37;1.70;;;;;;;;;;5094752;28;20194;-82
2024/03/31 08:01:42;;;;;;;1.80;1.60;;;;;;;;;;5094275;28;20222;-83
2024/03/31 08:04:10;;;;;;;3.27;2.10;;;;;;;;;;5093859;28;20248;-82
2024/03/31 08:06:36;;;;;;;3.17;1.70;;;;;;;;;;5094549;28;20233;-81
2024/03/31 08:09:04;;;;;;;4.93;1.77;;;;;;;;;;5094363;28;20286;-82
2024/03/31 08:11:30;;;;;;;3.77;1.97;;;;;;;;;;5094080;28;20301;-82
2024/03/31 08:13:57;;;;;;;3.30;2.00;;;;;;;;;;5093001;28;20198;-82
2024/03/31 08:16:25;;;;;;;2.30;1.80;;;;;;;;;;5093616;28;20202;-80
2024/03/31 08:18:52;;;;;;;3.80;2.00;;;;;;;;;;5093619;28;20253;-81
2024/03/31 08:21:18;;;;;;;2.80;1.73;;;;;;;;;;5093867;28;20710;-81
2024/03/31 08:23:46;;;;;;;2.20;1.50;;;;;;;;;;5092757;28;20194;-82
2024/03/31 08:26:12;;;;;;;3.23;1.63;;;;;;;;;;5093870;28;20222;-82
2024/03/31 08:28:39;;;;;;;4.40;1.60;;;;;;;;;;5093638;28;20194;-80
2024/03/31 08:31:05;;;;;;;3.07;1.50;;;;;;;;;;5093627;28;20203;-81
2024/03/31 08:33:34;;;;;;;2.97;1.40;;;;;;;;;;5093290;28;20578;-82
2024/03/31 08:36:00;;;;;;;3.83;1.60;;;;;;;;;;5093919;28;20260;-82
2024/03/31 08:38:28;;;;;;;3.10;1.47;;;;;;;;;;5093890;28;20198;-83
2024/03/31 08:40:55;;;;;;;1.77;1.10;;;;;;;;;;5093742;28;20734;-82
2024/03/31 08:43:23;;;;;;;3.37;1.20;;;;;;;;;;5093279;28;20198;-82
2024/03/31 08:45:50;;;;;;;3.13;1.30;;;;;;;;;;5093280;28;20195;-82
2024/03/31 08:48:20;;;;;;;1.23;1.10;;;;;;;;;;5093387;28;20251;-83
2024/03/31 08:50:48;;;;;;;2.50;1.20;;;;;;;;;;5093940;28;20199;-83
2024/03/31 08:53:17;;;;;;;3.33;1.10;;;;;;;;;;5092892;28;20278;-82
2024/03/31 08:55:44;;;;;;;3.00;1.30;;;;;;;;;;5093221;28;20183;-82
2024/03/31 08:58:11;;;;;;;3.83;1.47;;;;;;;;;;5087868;28;20243;-80
2024/03/31 09:00:40;;;;;;;2.90;1.47;;;;;;;;;;5092919;28;20218;-80
2024/03/31 09:03:08;;;;;;;3.73;1.57;;;;;;;;;;5092720;28;20202;-80
2024/03/31 09:05:34;;;;;;;2.67;1.40;;;;;;;;;;5082030;28;20256;-80
2024/03/31 09:08:03;;;;;;;2.20;1.17;;;;;;;;;;5090131;28;20194;-79
2024/03/31 09:10:29;;;;;;;2.73;1.50;;;;;;;;;;5087457;28;20251;-81
2024/03/31 09:12:56;;;;;;;2.40;1.30;;;;;;;;;;5091991;28;20202;-81
2024/03/31 09:15:22;;;;;;;1.90;1.30;;;;;;;;;;5091762;28;20248;-79
2024/03/31 09:17:49;;;;;;;2.33;1.30;;;;;;;;;;5089863;28;20705;-81
2024/03/31 09:20:16;;;;;;;5.10;1.90;;;;;;;;;;5092482;28;20320;-81
2024/03/31 09:22:43;;;;;;;4.90;1.53;;;;;;;;;;5092530;28;20197;-80
2024/03/31 09:25:11;;;;;;;3.43;1.80;;;;;;;;;;5105110;28;20256;-81
2024/03/31 09:27:38;;;;;;;2.60;1.50;;;;;;;;;;5092179;28;20195;-81
2024/03/31 09:30:06;;;;;;;4.13;1.50;;;;;;;;;;5092167;28;20202;-81
2024/03/31 09:32:33;;;;;;;2.37;1.37;;;;;;;;;;5091945;28;20224;-82
2024/03/31 09:34:59;;;;;;;3.67;1.60;;;;;;;;;;5092421;28;20230;-81
2024/03/31 09:37:26;;;;;;;2.30;1.38;;;;;;;;;;5092121;28;20209;-81
2024/03/31 09:39:53;;;;;;;2.25;1.40;;;;;;;;;;5090859;28;20262;-79
2024/03/31 09:42:22;;;;;;;2.90;1.30;;;;;;;;;;5090567;28;20199;-80
2024/03/31 09:44:48;;;;;;;4.50;1.55;;;;;;;;;;5074753;28;20244;-77
2024/03/31 09:47:19;;;;;;;4.25;1.70;;;;;;;;;;5089706;28;20447;-80
2024/03/31 09:49:52;;;;;;;7.30;1.77;;;;;;;;;;5091042;28;20259;-81
2024/03/31 09:52:25;;;;;;;3.17;1.90;;;;;;;;;;5091942;28;20553;-80
2024/03/31 09:54:55;;;;;;;2.97;1.40;;;;;;;;;;5089922;28;20298;-80
2024/03/31 09:57:25;;;;;;;3.45;1.70;;;;;;;;;;5091512;28;20759;-80
2024/03/31 09:59:54;;;;;;;2.40;1.60;;;;;;;;;;5110326;28;20205;-81
2024/03/31 10:02:22;;;;;;;2.33;1.40;;;;;;;;;;5091490;28;20237;-81
2024/03/31 10:04:50;;;;;;;2.38;1.40;;;;;;;;;;5091918;28;20194;-80
2024/03/31 10:07:24;;;;;;;4.70;1.45;;;;;;;;;;5092114;28;20198;-80
2024/03/31 10:09:52;;;;;;;3.17;1.47;;;;;;;;;;5091537;28;20198;-81
2024/03/31 10:12:20;;;;;;;1.63;1.17;;;;;;;;;;5091551;28;20225;-80
2024/03/31 10:14:48;;;;;;;5.63;1.70;;;;;;;;;;5088959;28;20670;-80
2024/03/31 10:17:15;;;;;;;3.37;1.70;;;;;;;;;;5093229;28;20290;-80
2024/03/31 10:19:42;;;;;;;2.50;1.70;;;;;;;;;;5091789;28;20247;-78
2024/03/31 10:22:10;;;;;;;4.90;1.80;;;;;;;;;;5089723;28;20232;-81
2024/03/31 10:24:36;;;;;;;3.70;2.20;;;;;;;;;;5090252;28;20311;-84
2024/03/31 10:27:05;;;;;;;2.57;1.80;;;;;;;;;;5078288;28;20253;-85
2024/03/31 10:29:32;;;;;;;2.97;1.70;;;;;;;;;;5090720;28;20202;-81
2024/03/31 10:32:00;;;;;;;3.63;1.50;;;;;;;;;;5090841;28;20352;-81
2024/03/31 10:34:27;;;;;;;3.73;1.50;;;;;;;;;;5090311;28;20610;-81
2024/03/31 10:36:55;;;;;;;2.67;1.10;;;;;;;;;;5089870;28;20199;-81
2024/03/31 10:39:21;;;;;;;2.00;1.23;;;;;;;;;;5090495;28;20194;-80
2024/03/31 10:41:48;;;;;;;2.37;1.20;;;;;;;;;;5090296;28;20624;-80
2024/03/31 10:44:15;;;;;;;2.17;1.27;;;;;;;;;;5089809;28;20222;-80
2024/03/31 10:46:43;;;;;;;2.00;1.20;;;;;;;;;;5090923;28;20226;-80
2024/03/31 10:49:11;;;;;;;1.60;1.20;;;;;;;;;;5091345;28;20251;-80
2024/03/31 10:51:42;;;;;;;3.00;1.60;;;;;;;;;;5086246;28;20229;-80
2024/03/31 10:54:27;;;;;;;3.37;1.60;;;;;;;;;;5092902;28;20194;-80
2024/03/31 10:57:00;;;;;;;4.13;1.90;;;;;;;;;;5087493;28;20199;-80
2024/03/31 10:59:27;;;;;;;4.10;1.67;;;;;;;;;;5090027;28;20269;-80
2024/03/31 11:01:54;;;;;;;4.10;1.63;;;;;;;;;;5090712;28;21065;-80
2024/03/31 11:04:23;;;;;;;2.60;1.80;;;;;;;;;;5091105;28;20194;-81
2024/03/31 11:06:52;;;;;;;2.90;1.67;;;;;;;;;;5071776;28;20222;-81
2024/03/31 11:09:18;;;;;;;1.90;1.50;;;;;;;;;;5089376;28;20199;-80
2024/03/31 11:11:48;;;;;;;2.27;1.30;;;;;;;;;;5070654;28;20668;-81
2024/03/31 11:14:14;;;;;;;5.20;2.20;;;;;;;;;;5089718;28;20251;-81
2024/03/31 11:16:41;;;;;;;2.80;1.40;;;;;;;;;;5089556;28;20202;-81
2024/03/31 11:19:08;;;;;;;2.03;1.30;;;;;;;;;;5082523;28;20226;-81
2024/03/31 11:21:37;;;;;;;3.83;1.60;;;;;;;;;;5095865;28;20232;-79
2024/03/31 11:24:04;;;;;;;2.60;1.23;;;;;;;;;;5098396;28;20199;-81
2024/03/31 11:26:31;;;;;;;3.27;1.30;;;;;;;;;;5089737;28;20202;-80
2024/03/31 11:28:58;;;;;;;3.00;1.83;;;;;;;;;;5088297;28;20659;-80
2024/03/31 11:31:25;;;;;;;2.33;1.43;;;;;;;;;;5089187;28;20222;-80
2024/03/31 11:33:52;;;;;;;2.37;1.43;;;;;;;;;;5091240;28;20240;-80
2024/03/31 11:36:20;;;;;;;2.13;1.33;;;;;;;;;;5090476;28;20675;-80
2024/03/31 11:38:48;;;;;;;2.33;1.47;;;;;;;;;;5071863;28;20211;-80
2024/03/31 11:41:16;;;;;;;3.13;1.40;;;;;;;;;;5070062;28;20288;-79
2024/03/31 11:43:42;;;;;;;1.80;1.27;;;;;;;;;;5083656;28;20206;-80
2024/03/31 11:46:10;;;;;;;1.20;0.90;;;;;;;;;;5087994;28;20259;-80
2024/03/31 11:48:36;;;;;;;1.30;1.20;;;;;;;;;;5091390;28;20209;-81
2024/03/31 11:51:03;;;;;;;2.13;1.40;;;;;;;;;;5088849;28;20199;-80
2024/03/31 11:53:30;;;;;;;2.03;1.10;;;;;;;;;;5075521;28;20215;-80
2024/03/31 11:55:58;;;;;;;2.13;1.30;;;;;;;;;;5093314;28;20190;-81
2024/03/31 11:58:25;;;;;;;1.80;1.10;;;;;;;;;;5101896;28;20218;-81
2024/03/31 12:03:39;;;;;;;2.30;1.17;;;;;;;;;;5090153;28;20289;-80
2024/03/31 12:06:06;;;;;;;1.07;0.70;;;;;;;;;;5091282;28;20215;-80
2024/03/31 12:08:33;;;;;;;1.23;1.00;;;;;;;;;;5093359;28;20218;-80
2024/03/31 12:11:00;;;;;;;1.60;0.97;;;;;;;;;;5091219;28;20198;-81
2024/03/31 12:13:30;;;;;;;1.77;0.90;;;;;;;;;;4735890;27;9999894;-80
2024/03/31 12:15:57;;;;;;;1.80;0.90;;;;;;;;;;5083528;28;20230;-79
2024/03/31 12:18:24;;;;;;;1.87;0.80;;;;;;;;;;5090259;28;20207;-80
2024/03/31 12:20:51;;;;;;;1.57;0.80;;;;;;;;;;5088930;28;20321;-78
2024/03/31 12:23:18;;;;;;;1.93;1.20;;;;;;;;;;5089463;28;20194;-80
2024/03/31 12:25:48;;;;;;;1.83;1.20;;;;;;;;;;5088973;28;20226;-80
2024/03/31 12:28:16;;;;;;;1.93;0.80;;;;;;;;;;5087316;28;20201;-79
2024/03/31 12:30:44;;;;;;;2.07;1.10;;;;;;;;;;5090816;28;20663;-79
2024/03/31 12:33:11;;;;;;;0.80;0.70;;;;;;;;;;5076104;28;20199;-80
2024/03/31 12:35:38;;;;;;;2.03;1.47;;;;;;;;;;5075073;28;20251;-78
2024/03/31 12:38:05;;;;;;;2.77;1.47;;;;;;;;;;5083240;28;20260;-78
2024/03/31 12:40:32;;;;;;;2.43;1.80;;;;;;;;;;5082432;28;20251;-80
2024/03/31 12:42:59;;;;;;;1.37;0.93;;;;;;;;;;5084036;28;20205;-79
2024/03/31 12:45:27;;;;;;;1.13;0.70;;;;;;;;;;5083572;28;20679;-80
2024/03/31 12:47:55;;;;;;;1.20;0.60;;;;;;;;;;5089056;28;20267;-80
2024/03/31 12:50:21;;;;;;;0.97;0.60;;;;;;;;;;5093955;28;20284;-79
2024/03/31 12:52:49;;;;;;;1.23;0.60;;;;;;;;;;5098766;28;20195;-78
2024/03/31 12:55:19;;;;;;;1.00;0.70;;;;;;;;;;5095676;28;20694;-79
2024/03/31 12:57:46;;;;;;;0.97;0.60;;;;;;;;;;5094501;28;20667;-78
2024/03/31 13:00:13;;;;;;;0.57;0.37;;;;;;;;;;5090101;28;20198;-79
2024/03/31 13:02:44;;;;;;;0.60;0.33;;;;;;;;;;5085054;28;20278;-78
2024/03/31 13:05:10;;;;;;;2.10;0.60;;;;;;;;;;5083526;28;20265;-79
2024/03/31 13:07:38;;;;;;;1.23;0.40;;;;;;;;;;5085625;28;20198;-78
2024/03/31 13:10:05;;;;;;;1.53;0.40;;;;;;;;;;5085950;28;20203;-79
2024/03/31 13:12:32;;;;;;;0.50;0.30;;;;;;;;;;5086608;28;20206;-79
2024/03/31 13:14:59;;;;;;;0.80;0.50;;;;;;;;;;5087670;28;20622;-79
2024/03/31 13:17:26;;;;;;;0.67;0.27;;;;;;;;;;5085092;28;20228;-78
2024/03/31 13:19:53;;;;;;;0.63;0.40;;;;;;;;;;5086009;28;20228;-79
2024/03/31 13:22:22;;;;;;;0.47;0.30;;;;;;;;;;5089072;28;20706;-79
2024/03/31 13:24:48;;;;;;;0.50;0.30;;;;;;;;;;5091257;28;20231;-79
2024/03/31 13:27:15;;;;;;;1.30;0.30;;;;;;;;;;5087708;28;20615;-79
2024/03/31 13:29:41;;;;;;;1.27;0.40;;;;;;;;;;5074570;28;20597;-78
2024/03/31 13:32:11;;;;;;;1.20;0.40;;;;;;;;;;5108169;28;20214;-78
2024/03/31 13:34:37;;;;;;;0.90;0.70;;;;;;;;;;5101785;27;20203;-78
2024/03/31 13:37:06;;;;;;;0.73;0.50;;;;;;;;;;5091982;28;20199;-80
2024/03/31 13:39:32;;;;;;;0.77;0.57;;;;;;;;;;5088320;28;20244;-79
2024/03/31 13:41:59;;;;;;;0.80;0.50;;;;;;;;;;5092115;28;20279;-78
2024/03/31 13:44:26;;;;;;;1.47;0.70;;;;;;;;;;5092464;28;20240;-79
2024/03/31 13:46:53;;;;;;;3.37;0.60;;;;;;;;;;5091483;28;20263;-79
2024/03/31 13:49:19;;;;;;;1.20;0.70;;;;;;;;;;5101480;28;20659;-78
2024/03/31 13:51:47;;;;;;;1.17;0.40;;;;;;;;;;5089293;28;20218;-79
2024/03/31 13:54:15;;;;;;;1.40;0.60;;;;;;;;;;5089945;28;20191;-79
2024/03/31 13:56:43;;;;;;;0.90;0.60;;;;;;;;;;5089542;28;20202;-79
2024/03/31 13:59:09;;;;;;;1.63;0.70;;;;;;;;;;5089138;28;20234;-78
2024/03/31 14:01:37;;;;;;;0.97;0.60;;;;;;;;;;5087328;28;20226;-78
2024/03/31 14:04:03;;;;;;;0.47;0.37;;;;;;;;;;5085805;28;20240;-79
2024/03/31 14:06:30;;;;;;;1.10;0.60;;;;;;;;;;5089442;28;20206;-78
2024/03/31 14:08:56;;;;;;;0.87;0.47;;;;;;;;;;5089857;28;20199;-78
2024/03/31 14:11:25;;;;;;;0.70;0.40;;;;;;;;;;5090726;28;20209;-78
2024/03/31 14:13:51;;;;;;;1.60;0.40;;;;;;;;;;5090668;28;20252;-77
2024/03/31 14:16:18;;;;;;;0.90;0.50;;;;;;;;;;5091151;28;20259;-79
2024/03/31 14:18:45;;;;;;;0.60;0.50;;;;;;;;;;5091329;28;20198;-78
2024/03/31 14:21:12;;;;;;;0.63;0.50;;;;;;;;;;5090658;28;20264;-79
2024/03/31 14:23:38;;;;;;;0.70;0.33;;;;;;;;;;5089687;28;20205;-78
2024/03/31 14:26:09;;;;;;;0.60;0.30;;;;;;;;;;5090743;28;20222;-78
2024/03/31 14:28:36;;;;;;;4.10;0.60;;;;;;;;;;5089135;28;20201;-78
2024/03/31 14:31:04;;;;;;;1.03;0.80;;;;;;;;;;5090892;28;20198;-78
2024/03/31 14:33:30;;;;;;;2.67;0.67;;;;;;;;;;5091208;28;20202;-79
2024/03/31 14:35:58;;;;;;;1.73;0.40;;;;;;;;;;5088456;28;20202;-77
2024/03/31 14:38:24;;;;;;;1.00;0.50;;;;;;;;;;5091042;28;20199;-79
2024/03/31 14:40:51;;;;;;;2.43;1.00;;;;;;;;;;5090216;28;20202;-78
2024/03/31 14:43:17;;;;;;;2.03;1.07;;;;;;;;;;5090894;28;20198;-78
2024/03/31 14:45:46;;;;;;;2.50;0.97;;;;;;;;;;5090464;28;20194;-79